createdAt,value
2023-01-21T00:00:10.431Z,3.28
2023-01-21T00:05:11.904Z,2.78
2023-01-21T00:10:13.374Z,4.15
2023-01-21T00:15:14.832Z,4.07
2023-01-21T00:20:16.884Z,3.78
2023-01-21T00:25:18.623Z,3.70
2023-01-21T00:30:20.299Z,3.50
2023-01-21T00:35:21.737Z,3.03
2023-01-21T00:40:23.219Z,3.05
2023-01-21T00:45:24.698Z,2.90
2023-01-21T00:50:26.098Z,2.45
2023-01-21T00:55:27.491Z,2.25
2023-01-21T01:00:28.986Z,2.03
2023-01-21T01:05:30.471Z,3.42
2023-01-21T01:10:31.876Z,3.33
2023-01-21T01:15:33.307Z,3.80
2023-01-21T01:20:34.726Z,4.47
2023-01-21T01:25:37.963Z,3.35
2023-01-21T01:30:39.462Z,3.65
2023-01-21T01:35:42.015Z,3.22
2023-01-21T01:40:43.663Z,3.53
2023-01-21T01:45:45.269Z,3.20
2023-01-21T01:50:48.076Z,3.15
2023-01-21T01:55:49.919Z,4.45
2023-01-21T02:00:51.474Z,3.53
2023-01-21T02:05:54.052Z,3.63
2023-01-21T02:10:56.525Z,3.10
2023-01-21T02:16:21.614Z,3.75
2023-01-21T02:21:49.959Z,3.65
2023-01-21T02:27:09.880Z,4.90
2023-01-21T02:32:32.957Z,4.80
2023-01-21T02:38:06.894Z,4.50
2023-01-21T02:43:43.386Z,4.65
2023-01-21T02:48:56.583Z,4.45
2023-01-21T02:53:58.020Z,4.65
2023-01-21T02:59:04.628Z,5.93
2023-01-21T03:04:32.711Z,5.38
2023-01-21T03:09:35.363Z,5.85
2023-01-21T03:15:02.277Z,5.90
2023-01-21T03:20:25.661Z,5.88
2023-01-21T03:25:31.515Z,5.60
2023-01-21T03:30:35.572Z,6.55
2023-01-21T03:35:42.992Z,6.90
2023-01-21T03:40:56.515Z,6.28
2023-01-21T03:46:01.268Z,6.28
2023-01-21T03:51:10.047Z,5.20
2023-01-21T03:56:11.557Z,5.25
2023-01-21T04:01:13.098Z,5.65
2023-01-21T04:06:17.187Z,6.07
2023-01-21T04:11:18.888Z,4.93
2023-01-21T04:16:20.412Z,5.10
2023-01-21T04:21:21.968Z,6.45
2023-01-21T04:26:23.533Z,5.13
2023-01-21T04:31:25.143Z,5.18
2023-01-21T04:36:26.652Z,6.00
2023-01-21T04:41:28.212Z,7.20
2023-01-21T04:46:29.711Z,6.22
2023-01-21T04:51:31.248Z,6.47
2023-01-21T04:56:32.664Z,6.40
2023-01-21T05:01:34.361Z,6.28
2023-01-21T05:06:35.809Z,7.28
2023-01-21T05:11:37.497Z,6.40
2023-01-21T05:16:39.040Z,5.65
2023-01-21T05:21:41.722Z,5.90
2023-01-21T05:26:44.894Z,6.78
2023-01-21T05:31:46.532Z,6.18
2023-01-21T05:36:48.062Z,8.00
2023-01-21T05:41:50.153Z,6.43
2023-01-21T05:46:53.002Z,7.45
2023-01-21T05:51:54.957Z,7.63
2023-01-21T05:56:56.628Z,6.93
2023-01-21T06:02:01.048Z,8.18
2023-01-21T06:07:02.515Z,8.10
2023-01-21T06:12:04.144Z,10.93
2023-01-21T06:17:05.940Z,9.52
2023-01-21T06:22:07.423Z,11.05
2023-01-21T06:27:08.840Z,10.82
2023-01-21T06:32:10.487Z,13.25
2023-01-21T06:37:12.041Z,15.30
2023-01-21T06:42:13.601Z,16.70
2023-01-21T06:47:15.687Z,16.95
2023-01-21T06:52:17.603Z,18.25
2023-01-21T06:57:22.360Z,20.08
2023-01-21T07:02:23.812Z,18.85
2023-01-21T07:07:25.411Z,16.90
2023-01-21T07:12:27.036Z,17.65
2023-01-21T07:17:28.544Z,18.67
2023-01-21T07:22:30.003Z,16.92
2023-01-21T07:27:31.833Z,17.35
2023-01-21T07:32:33.397Z,17.90
2023-01-21T07:37:34.889Z,16.73
2023-01-21T07:42:36.435Z,15.77
2023-01-21T07:47:37.922Z,13.75
2023-01-21T07:52:40.044Z,15.30
2023-01-21T07:57:41.496Z,15.18
2023-01-21T08:02:43.016Z,14.23
2023-01-21T08:07:44.610Z,18.85
2023-01-21T08:12:46.155Z,13.00
2023-01-21T08:17:48.992Z,14.52
2023-01-21T08:22:50.963Z,12.18
2023-01-21T08:27:54.207Z,11.35
2023-01-21T08:32:55.966Z,12.20
2023-01-21T08:37:57.579Z,12.93
2023-01-21T08:43:00.153Z,13.02
2023-01-21T08:48:04.038Z,13.25
2023-01-21T08:53:05.559Z,10.43
2023-01-21T08:58:06.994Z,13.82
2023-01-21T09:03:08.824Z,13.02
2023-01-21T09:08:10.403Z,12.30
2023-01-21T09:13:12.853Z,11.30
2023-01-21T09:18:14.736Z,12.65
2023-01-21T09:23:25.621Z,12.63
2023-01-21T09:28:32.189Z,13.07
2023-01-21T09:33:37.873Z,12.25
2023-01-21T09:38:42.595Z,12.52
2023-01-21T09:43:49.052Z,10.48
2023-01-21T09:48:51.740Z,21.33
2023-01-21T09:53:57.986Z,12.57
2023-01-21T09:59:22.469Z,12.15
2023-01-21T10:04:46.172Z,11.63
2023-01-21T10:10:14.710Z,12.55
2023-01-21T10:15:41.396Z,10.80
2023-01-21T10:20:58.950Z,11.52
2023-01-21T10:26:07.131Z,11.40
2023-01-21T10:31:28.668Z,8.88
2023-01-21T10:36:49.484Z,10.45
2023-01-21T10:42:17.530Z,10.38
2023-01-21T10:47:44.927Z,10.20
2023-01-21T10:52:55.295Z,10.38
2023-01-21T11:03:46.070Z,13.40
2023-01-21T11:14:02.092Z,13.30
2023-01-21T11:19:06.846Z,15.02
2023-01-21T11:24:23.546Z,14.30
2023-01-21T11:29:26.209Z,14.55
2023-01-21T11:34:28.524Z,12.38
2023-01-21T11:39:35.468Z,12.60
2023-01-21T11:44:54.311Z,13.20
2023-01-21T11:50:03.346Z,14.75
2023-01-21T11:55:17.674Z,13.30
2023-01-21T12:00:22.796Z,14.48
2023-01-21T12:05:37.328Z,15.23
2023-01-21T12:10:44.622Z,15.88
2023-01-21T12:15:52.436Z,14.55
2023-01-21T12:20:57.216Z,13.30
2023-01-21T12:26:05.329Z,14.93
2023-01-21T12:31:23.853Z,15.00
2023-01-21T12:36:33.509Z,14.98
2023-01-21T12:41:40.437Z,16.83
2023-01-21T12:46:47.629Z,17.00
2023-01-21T12:52:14.819Z,16.13
2023-01-21T12:57:27.825Z,17.55
2023-01-21T13:02:53.109Z,15.57
2023-01-21T13:08:03.542Z,14.95
2023-01-21T13:13:14.174Z,15.60
2023-01-21T13:18:33.980Z,15.52
2023-01-21T13:23:48.297Z,14.73
2023-01-21T13:29:16.421Z,17.30
2023-01-21T13:34:39.995Z,16.15
2023-01-21T13:39:55.096Z,15.15
2023-01-21T13:45:15.937Z,15.43
2023-01-21T13:50:59.649Z,14.10
2023-01-21T13:56:13.930Z,13.57
2023-01-21T14:01:23.561Z,13.88
2023-01-21T14:06:40.628Z,15.50
2023-01-21T14:11:50.005Z,16.63
2023-01-21T14:16:52.874Z,14.68
2023-01-21T14:22:16.692Z,14.35
2023-01-21T14:27:27.785Z,14.70
2023-01-21T14:32:38.104Z,15.25
2023-01-21T14:42:49.275Z,13.18
2023-01-21T14:47:55.843Z,13.25
2023-01-21T14:52:58.000Z,13.15
2023-01-21T14:58:01.856Z,13.65
2023-01-21T15:03:03.437Z,12.65
2023-01-21T15:08:23.893Z,12.55
2023-01-21T15:13:32.929Z,12.45
2023-01-21T15:18:38.710Z,12.88
2023-01-21T15:23:41.542Z,11.10
2023-01-21T15:28:44.883Z,11.48
2023-01-21T15:33:58.946Z,12.68
2023-01-21T15:39:29.034Z,11.48
2023-01-21T15:44:47.501Z,13.02
2023-01-21T15:50:00.164Z,12.07
2023-01-21T15:55:32.611Z,12.55
2023-01-21T16:00:43.112Z,12.90
2023-01-21T16:05:50.568Z,11.30
2023-01-21T16:11:01.598Z,13.90
2023-01-21T16:16:12.729Z,12.88
2023-01-21T16:21:16.079Z,12.70
2023-01-21T16:26:26.220Z,13.23
2023-01-21T16:31:27.869Z,12.73
2023-01-21T16:36:38.236Z,11.23
2023-01-21T16:46:41.775Z,12.73
2023-01-21T16:52:18.929Z,16.50
2023-01-21T16:57:31.495Z,12.20
2023-01-21T17:02:34.118Z,13.10
2023-01-21T17:07:43.623Z,12.00
2023-01-21T17:12:59.229Z,15.37
2023-01-21T17:18:01.242Z,10.95
2023-01-21T17:23:08.059Z,12.82
2023-01-21T17:28:29.369Z,11.60
2023-01-21T17:33:30.940Z,13.25
2023-01-21T17:38:38.926Z,13.07
2023-01-21T17:43:47.823Z,11.10
2023-01-21T17:48:53.818Z,17.38
2023-01-21T17:54:02.093Z,11.02
2023-01-21T17:59:21.620Z,13.38
2023-01-21T18:04:23.192Z,17.63
2023-01-21T18:09:25.659Z,12.95
2023-01-21T18:14:27.458Z,10.27
2023-01-21T18:19:31.204Z,11.30
2023-01-21T18:24:33.009Z,14.13
2023-01-21T18:29:34.561Z,11.27
2023-01-21T18:34:36.300Z,10.50
2023-01-21T18:39:37.978Z,10.25
2023-01-21T18:44:39.775Z,12.15
2023-01-21T18:49:41.475Z,11.25
2023-01-21T18:54:43.108Z,12.93
2023-01-21T18:59:44.694Z,12.32
2023-01-21T19:04:47.372Z,11.43
2023-01-21T19:09:51.214Z,10.48
2023-01-21T19:14:53.265Z,10.73
2023-01-21T19:19:55.470Z,9.70
2023-01-21T19:24:56.955Z,9.25
2023-01-21T19:30:01.431Z,12.07
2023-01-21T19:35:02.932Z,9.63
2023-01-21T19:40:13.443Z,9.98
2023-01-21T19:45:20.110Z,11.82
2023-01-21T19:50:24.503Z,10.27
2023-01-21T19:55:26.134Z,11.02
2023-01-21T20:00:33.107Z,10.25
2023-01-21T20:05:34.801Z,10.43
2023-01-21T20:10:36.584Z,11.23
2023-01-21T20:15:38.191Z,11.50
2023-01-21T20:20:39.733Z,10.43
2023-01-21T20:25:43.616Z,11.02
2023-01-21T20:30:45.760Z,10.20
2023-01-21T20:35:49.300Z,9.90
2023-01-21T20:40:50.834Z,12.02
2023-01-21T20:45:53.410Z,11.75
2023-01-21T20:50:55.201Z,11.13
2023-01-21T20:56:00.379Z,10.60
2023-01-21T21:01:01.863Z,12.57
2023-01-21T21:06:10.868Z,13.60
2023-01-21T21:11:14.754Z,12.98
2023-01-21T21:16:26.247Z,12.25
2023-01-21T21:21:27.790Z,13.30
2023-01-21T21:26:29.554Z,11.55
2023-01-21T21:31:32.697Z,12.32
2023-01-21T21:36:34.260Z,12.38
2023-01-21T21:41:54.604Z,11.32
2023-01-21T21:52:17.779Z,11.52
2023-01-21T21:57:19.240Z,10.60
2023-01-21T22:02:21.061Z,13.80
2023-01-21T22:07:22.636Z,11.57
2023-01-21T22:12:24.224Z,11.70
2023-01-21T22:17:25.866Z,11.73
2023-01-21T22:22:27.534Z,11.43
2023-01-21T22:27:29.839Z,11.57
2023-01-21T22:32:31.315Z,10.57
2023-01-21T22:37:32.824Z,11.45
2023-01-21T22:42:34.435Z,10.82
2023-01-21T22:47:35.959Z,11.45
2023-01-21T22:52:37.500Z,9.93
2023-01-21T22:57:38.928Z,10.70
2023-01-21T23:02:40.324Z,12.10
2023-01-21T23:07:41.889Z,9.77
2023-01-21T23:12:43.331Z,10.40
2023-01-21T23:17:44.844Z,9.48
2023-01-21T23:22:46.309Z,10.32
2023-01-21T23:27:47.783Z,12.45
2023-01-21T23:32:49.204Z,13.05
2023-01-21T23:37:50.681Z,13.70
2023-01-21T23:42:52.077Z,11.63
2023-01-21T23:47:54.859Z,10.40
2023-01-21T23:52:56.522Z,8.43
2023-01-21T23:57:57.963Z,9.43
